createdAt,value
2018-10-03T00:00:22.440Z,12.39
2018-10-03T00:02:51.277Z,12.40
2018-10-03T00:05:20.095Z,12.33
2018-10-03T00:07:48.957Z,12.32
2018-10-03T00:10:17.810Z,12.35
2018-10-03T00:12:46.790Z,12.30
2018-10-03T00:15:15.746Z,12.30
2018-10-03T00:17:44.637Z,12.32
2018-10-03T00:20:13.547Z,12.27
2018-10-03T00:22:42.462Z,12.26
2018-10-03T00:25:11.344Z,12.24
2018-10-03T00:27:40.302Z,12.26
2018-10-03T00:30:09.297Z,12.27
2018-10-03T00:32:38.122Z,12.34
2018-10-03T00:35:07.053Z,12.39
2018-10-03T00:37:35.931Z,12.37
2018-10-03T00:40:04.855Z,12.40
2018-10-03T00:42:33.782Z,12.46
2018-10-03T00:45:02.704Z,12.49
2018-10-03T00:47:31.662Z,12.51
2018-10-03T00:50:00.674Z,12.59
2018-10-03T00:52:29.577Z,12.65
2018-10-03T00:54:58.524Z,12.70
2018-10-03T00:57:27.377Z,12.73
2018-10-03T00:59:56.255Z,12.78
2018-10-03T01:02:25.163Z,12.80
2018-10-03T01:04:54.027Z,12.86
2018-10-03T01:07:22.849Z,12.89
2018-10-03T01:09:51.771Z,12.89
2018-10-03T01:12:20.687Z,12.90
2018-10-03T01:14:49.601Z,12.92
2018-10-03T01:17:18.485Z,12.90
2018-10-03T01:19:47.444Z,12.92
2018-10-03T01:22:16.257Z,12.94
2018-10-03T01:24:45.156Z,12.93
2018-10-03T01:27:14.060Z,12.87
2018-10-03T01:29:43.010Z,12.89
2018-10-03T01:32:11.906Z,12.90
2018-10-03T01:34:40.815Z,12.88
2018-10-03T01:37:09.765Z,12.82
2018-10-03T01:39:38.665Z,12.82
2018-10-03T01:42:07.808Z,12.75
2018-10-03T01:44:36.814Z,12.69
2018-10-03T01:47:05.685Z,12.71
2018-10-03T01:49:34.911Z,12.72
2018-10-03T01:52:03.796Z,12.72
2018-10-03T01:54:32.604Z,12.73
2018-10-03T01:57:01.598Z,12.72
2018-10-03T01:59:30.501Z,12.75
2018-10-03T02:01:59.568Z,12.75
2018-10-03T02:04:28.441Z,12.75
2018-10-03T02:06:57.472Z,12.75
2018-10-03T02:09:26.344Z,12.74
2018-10-03T02:11:55.403Z,12.74
2018-10-03T02:14:24.269Z,12.70
2018-10-03T02:16:53.342Z,12.66
2018-10-03T02:19:22.151Z,12.66
2018-10-03T02:21:51.048Z,12.66
2018-10-03T02:24:20.288Z,12.71
2018-10-03T02:26:49.193Z,12.74
2018-10-03T02:29:18.229Z,12.79
2018-10-03T02:31:47.174Z,12.83
2018-10-03T02:34:15.999Z,12.83
2018-10-03T02:36:44.861Z,12.77
2018-10-03T02:39:13.706Z,12.67
2018-10-03T02:41:42.553Z,12.64
2018-10-03T02:44:11.362Z,12.61
2018-10-03T02:46:40.217Z,12.59
2018-10-03T02:49:09.378Z,12.59
2018-10-03T02:51:38.199Z,12.63
2018-10-03T02:54:07.146Z,12.61
2018-10-03T02:56:36.070Z,12.62
2018-10-03T02:59:04.903Z,12.59
2018-10-03T03:01:33.865Z,12.55
2018-10-03T03:04:02.951Z,12.58
2018-10-03T03:06:31.884Z,12.62
2018-10-03T03:09:00.811Z,12.65
2018-10-03T03:11:29.906Z,12.62
2018-10-03T03:13:58.965Z,12.64
2018-10-03T03:16:27.913Z,12.67
2018-10-03T03:18:56.819Z,12.66
2018-10-03T03:21:25.734Z,12.70
2018-10-03T03:23:54.677Z,12.69
2018-10-03T03:26:23.509Z,12.69
2018-10-03T03:28:52.441Z,12.67
2018-10-03T03:31:21.408Z,12.68
2018-10-03T03:33:50.360Z,12.63
2018-10-03T03:36:19.278Z,12.65
2018-10-03T03:38:48.123Z,12.62
2018-10-03T03:41:17.247Z,12.62
2018-10-03T03:43:46.142Z,12.57
2018-10-03T03:46:15.047Z,12.52
2018-10-03T03:48:43.910Z,12.52
2018-10-03T03:51:12.874Z,12.51
2018-10-03T03:53:42.012Z,12.53
2018-10-03T03:56:10.908Z,12.37
2018-10-03T03:58:39.717Z,12.37
2018-10-03T04:01:08.639Z,12.32
2018-10-03T04:03:37.538Z,12.30
2018-10-03T04:06:06.600Z,12.31
2018-10-03T04:08:35.468Z,12.29
2018-10-03T04:11:04.297Z,12.29
2018-10-03T04:13:33.204Z,12.23
2018-10-03T04:16:02.029Z,12.21
2018-10-03T04:18:30.978Z,12.15
2018-10-03T04:20:59.974Z,12.16
2018-10-03T04:23:28.881Z,12.12
2018-10-03T04:25:57.774Z,12.14
2018-10-03T04:28:27.098Z,12.09
2018-10-03T04:30:56.053Z,12.10
2018-10-03T04:33:24.880Z,12.10
2018-10-03T04:35:53.800Z,12.18
2018-10-03T04:38:22.644Z,12.27
2018-10-03T04:40:51.594Z,12.33
2018-10-03T04:43:20.541Z,12.37
2018-10-03T04:45:49.370Z,12.37
2018-10-03T04:48:18.273Z,12.44
2018-10-03T04:50:47.237Z,12.40
2018-10-03T04:53:16.081Z,12.37
2018-10-03T04:55:45.073Z,12.41
2018-10-03T04:58:14.074Z,12.50
2018-10-03T05:00:43.058Z,12.54
2018-10-03T05:03:11.952Z,12.56
2018-10-03T05:05:40.808Z,12.48
2018-10-03T05:08:09.965Z,12.49
2018-10-03T05:10:38.837Z,12.46
2018-10-03T05:13:07.660Z,12.48
2018-10-03T05:15:36.655Z,12.48
2018-10-03T05:18:05.638Z,12.54
2018-10-03T05:20:34.691Z,12.57
2018-10-03T05:23:03.704Z,12.55
2018-10-03T05:25:32.590Z,12.58
2018-10-03T05:28:01.586Z,12.60
2018-10-03T05:30:30.654Z,12.62
2018-10-03T05:32:59.449Z,12.63
2018-10-03T05:35:28.354Z,12.74
2018-10-03T05:37:57.269Z,12.81
2018-10-03T05:40:26.363Z,12.89
2018-10-03T05:42:55.129Z,12.94
2018-10-03T05:45:24.073Z,12.91
2018-10-03T05:47:53.072Z,12.90
2018-10-03T05:50:21.992Z,12.98
2018-10-03T05:52:50.836Z,13.02
2018-10-03T05:55:19.797Z,13.03
2018-10-03T05:57:48.728Z,13.11
2018-10-03T06:00:17.699Z,13.08
2018-10-03T06:02:46.596Z,13.25
2018-10-03T06:05:15.655Z,13.27
2018-10-03T06:07:44.456Z,13.23
2018-10-03T06:10:13.329Z,13.28
2018-10-03T06:12:42.233Z,13.38
2018-10-03T06:15:11.165Z,13.39
2018-10-03T06:17:40.002Z,13.47
2018-10-03T06:20:09.262Z,13.55
2018-10-03T06:22:38.219Z,13.59
2018-10-03T06:25:07.475Z,13.63
2018-10-03T06:27:36.716Z,13.70
2018-10-03T06:30:07.192Z,13.73
2018-10-03T06:32:35.993Z,13.76
2018-10-03T06:35:04.810Z,13.90
2018-10-03T06:37:33.731Z,14.01
2018-10-03T06:40:02.698Z,14.14
2018-10-03T06:42:31.544Z,14.11
2018-10-03T06:45:00.429Z,13.96
2018-10-03T06:47:30.263Z,13.88
2018-10-03T06:50:05.708Z,13.75
2018-10-03T06:52:34.593Z,13.74
2018-10-03T06:55:03.579Z,13.81
2018-10-03T06:57:32.636Z,13.93
2018-10-03T07:00:01.471Z,13.93
2018-10-03T07:02:30.373Z,13.94
2018-10-03T07:04:59.239Z,13.72
2018-10-03T07:07:28.198Z,13.74
2018-10-03T07:09:57.184Z,13.89
2018-10-03T07:12:27.811Z,14.00
2018-10-03T07:14:56.771Z,13.94
2018-10-03T07:17:25.654Z,14.01
2018-10-03T07:19:54.607Z,14.02
2018-10-03T07:22:23.487Z,13.99
2018-10-03T07:24:52.412Z,14.05
2018-10-03T07:27:21.272Z,14.07
2018-10-03T07:29:50.158Z,14.03
2018-10-03T07:32:19.062Z,14.05
2018-10-03T07:34:47.953Z,14.14
2018-10-03T07:37:16.773Z,14.20
2018-10-03T07:39:45.621Z,14.26
2018-10-03T07:42:14.458Z,14.34
2018-10-03T07:44:43.450Z,14.45
2018-10-03T07:47:12.379Z,14.58
2018-10-03T07:49:41.267Z,14.61
2018-10-03T07:52:10.326Z,14.62
2018-10-03T07:54:39.130Z,14.70
2018-10-03T07:57:08.010Z,14.67
2018-10-03T07:59:36.901Z,14.64
2018-10-03T08:02:05.981Z,14.74
2018-10-03T08:04:34.818Z,14.77
2018-10-03T08:07:03.678Z,14.77
2018-10-03T08:09:32.486Z,14.81
2018-10-03T08:12:01.384Z,14.89
2018-10-03T08:14:30.279Z,14.92
2018-10-03T08:16:59.300Z,14.94
2018-10-03T08:19:28.238Z,15.05
2018-10-03T08:21:57.158Z,15.13
2018-10-03T08:24:26.140Z,15.13
2018-10-03T08:26:55.204Z,15.09
2018-10-03T08:29:24.167Z,15.13
2018-10-03T08:31:53.004Z,15.25
2018-10-03T08:34:21.868Z,15.38
2018-10-03T08:36:50.737Z,15.57
2018-10-03T08:39:19.722Z,15.56
2018-10-03T08:41:48.698Z,15.47
2018-10-03T08:44:17.481Z,15.51
2018-10-03T08:46:46.407Z,15.57
2018-10-03T08:49:15.318Z,15.59
2018-10-03T08:51:44.279Z,15.63
2018-10-03T08:54:13.302Z,15.78
2018-10-03T08:56:42.219Z,15.76
2018-10-03T08:59:11.198Z,15.78
2018-10-03T09:01:40.120Z,15.81
2018-10-03T09:04:08.924Z,15.93
2018-10-03T09:06:37.829Z,16.01
2018-10-03T09:09:08.926Z,16.05
2018-10-03T09:11:37.925Z,16.09
2018-10-03T09:14:07.005Z,16.22
2018-10-03T09:16:35.930Z,16.33
2018-10-03T09:19:04.782Z,16.38
2018-10-03T09:21:33.758Z,16.38
2018-10-03T09:24:02.614Z,16.51
2018-10-03T09:26:31.458Z,16.64
2018-10-03T09:29:00.358Z,16.62
2018-10-03T09:31:29.298Z,16.66
2018-10-03T09:33:58.134Z,16.70
2018-10-03T09:36:27.098Z,16.73
2018-10-03T09:38:56.009Z,16.73
2018-10-03T09:41:24.877Z,16.72
2018-10-03T09:43:53.865Z,16.73
2018-10-03T09:46:23.050Z,16.73
2018-10-03T09:48:51.876Z,16.85
2018-10-03T09:51:20.739Z,16.88
2018-10-03T09:53:49.591Z,16.93
2018-10-03T09:56:18.450Z,16.96
2018-10-03T09:58:47.334Z,17.05
2018-10-03T10:01:21.439Z,17.14
2018-10-03T10:03:50.410Z,17.23
2018-10-03T10:06:19.304Z,17.27
2018-10-03T10:08:48.180Z,17.36
2018-10-03T10:11:17.286Z,17.51
2018-10-03T10:13:46.599Z,17.71
2018-10-03T10:16:15.536Z,17.92
2018-10-03T10:18:44.452Z,18.09
2018-10-03T10:21:13.992Z,18.18
2018-10-03T10:23:42.916Z,18.28
2018-10-03T10:26:11.754Z,18.42
2018-10-03T10:28:40.649Z,18.58
2018-10-03T10:31:09.590Z,18.69
2018-10-03T10:33:38.535Z,18.64
2018-10-03T10:36:07.797Z,18.64
2018-10-03T10:38:39.503Z,18.66
2018-10-03T10:41:08.611Z,18.56
2018-10-03T10:43:37.598Z,18.44
2018-10-03T10:46:06.611Z,18.50
2018-10-03T10:48:35.506Z,18.53
2018-10-03T10:51:04.362Z,18.54
2018-10-03T10:53:33.244Z,18.58
2018-10-03T10:56:02.205Z,18.58
2018-10-03T10:58:31.142Z,18.61
2018-10-03T11:01:00.004Z,18.66
2018-10-03T11:03:28.907Z,18.76
2018-10-03T11:05:57.748Z,18.83
2018-10-03T11:08:26.555Z,18.90
2018-10-03T11:10:55.529Z,19.05
2018-10-03T11:13:24.506Z,19.16
2018-10-03T11:15:53.410Z,19.25
2018-10-03T11:18:22.232Z,19.24
2018-10-03T11:20:51.114Z,19.21
2018-10-03T11:23:19.990Z,19.27
2018-10-03T11:25:48.867Z,19.29
2018-10-03T11:28:17.725Z,19.35
2018-10-03T11:30:46.653Z,19.40
2018-10-03T11:33:15.592Z,19.46
2018-10-03T11:35:44.538Z,19.43
2018-10-03T11:38:13.471Z,19.45
2018-10-03T11:40:42.485Z,19.41
2018-10-03T11:43:11.281Z,19.44
2018-10-03T11:45:40.546Z,19.55
2018-10-03T11:48:09.494Z,19.57
2018-10-03T11:50:38.376Z,19.68
2018-10-03T11:53:07.849Z,19.86
2018-10-03T11:55:36.668Z,19.95
2018-10-03T11:58:05.576Z,19.99
2018-10-03T12:00:34.521Z,19.95
2018-10-03T12:03:03.471Z,19.94
2018-10-03T12:05:32.459Z,19.82
2018-10-03T12:08:01.349Z,19.69
2018-10-03T12:10:30.348Z,19.69
2018-10-03T12:12:59.347Z,19.84
2018-10-03T12:15:28.726Z,19.96
2018-10-03T12:17:57.746Z,19.97
2018-10-03T12:20:26.626Z,19.96
2018-10-03T12:22:55.621Z,19.94
2018-10-03T12:25:24.491Z,20.06
2018-10-03T12:27:53.446Z,20.16
2018-10-03T12:30:22.748Z,20.19
2018-10-03T12:32:51.585Z,20.18
2018-10-03T12:35:25.704Z,20.19
2018-10-03T12:37:54.575Z,20.07
2018-10-03T12:40:23.715Z,19.98
2018-10-03T12:42:52.588Z,19.94
2018-10-03T12:45:21.484Z,19.85
2018-10-03T12:47:50.412Z,19.80
2018-10-03T12:50:19.331Z,19.81
2018-10-03T12:52:48.447Z,19.86
2018-10-03T12:55:17.362Z,19.93
2018-10-03T12:57:46.888Z,20.07
2018-10-03T13:00:16.382Z,20.11
2018-10-03T13:02:45.493Z,20.23
2018-10-03T13:05:14.444Z,20.29
2018-10-03T13:07:43.274Z,20.33
2018-10-03T13:10:12.136Z,20.39
2018-10-03T13:12:41.145Z,20.50
2018-10-03T13:15:10.387Z,20.44
2018-10-03T13:17:39.245Z,20.36
2018-10-03T13:20:08.667Z,20.41
2018-10-03T13:22:37.513Z,20.43
2018-10-03T13:25:06.393Z,20.47
2018-10-03T13:27:35.403Z,20.59
2018-10-03T13:30:05.840Z,20.71
2018-10-03T13:32:34.713Z,20.73
2018-10-03T13:35:03.544Z,20.56
2018-10-03T13:37:32.443Z,20.47
2018-10-03T13:40:01.394Z,20.41
2018-10-03T13:42:30.589Z,20.32
2018-10-03T13:44:59.530Z,20.33
2018-10-03T13:47:28.479Z,20.28
2018-10-03T13:49:57.380Z,20.27
2018-10-03T13:52:26.305Z,20.14
2018-10-03T13:54:55.252Z,20.12
2018-10-03T13:57:24.152Z,20.10
2018-10-03T13:59:53.136Z,20.06
2018-10-03T14:02:22.090Z,20.04
2018-10-03T14:04:50.997Z,20.02
2018-10-03T14:07:19.800Z,19.97
2018-10-03T14:09:48.711Z,19.90
2018-10-03T14:12:17.651Z,19.72
2018-10-03T14:14:46.547Z,19.66
2018-10-03T14:17:15.428Z,19.62
2018-10-03T14:19:44.347Z,19.54
2018-10-03T14:22:13.219Z,19.52
2018-10-03T14:24:42.055Z,19.43
2018-10-03T14:27:10.981Z,19.32
2018-10-03T14:29:40.022Z,19.30
2018-10-03T14:32:08.882Z,19.20
2018-10-03T14:34:37.731Z,19.16
2018-10-03T14:37:06.619Z,19.12
2018-10-03T14:39:35.541Z,19.08
2018-10-03T14:42:04.630Z,19.12
2018-10-03T14:44:33.517Z,19.14
2018-10-03T14:47:02.402Z,19.13
2018-10-03T14:49:31.206Z,19.17
2018-10-03T14:52:00.066Z,19.21
2018-10-03T14:54:30.198Z,19.17
2018-10-03T14:56:59.009Z,19.16
2018-10-03T14:59:28.139Z,19.08
2018-10-03T15:01:57.044Z,18.93
2018-10-03T15:04:25.846Z,18.81
2018-10-03T15:06:54.737Z,18.75
2018-10-03T15:09:23.662Z,18.70
2018-10-03T15:11:52.487Z,18.63
2018-10-03T15:14:21.367Z,18.54
2018-10-03T15:16:50.254Z,18.47
2018-10-03T15:19:19.222Z,18.44
2018-10-03T15:21:48.044Z,18.36
2018-10-03T15:24:16.961Z,18.31
2018-10-03T15:26:46.084Z,18.20
2018-10-03T15:29:14.868Z,18.06
2018-10-03T15:31:43.709Z,18.03
2018-10-03T15:34:12.584Z,17.92
2018-10-03T15:36:41.785Z,17.81
2018-10-03T15:39:11.526Z,17.78
2018-10-03T15:41:40.392Z,17.74
2018-10-03T15:44:09.891Z,17.66
2018-10-03T15:46:38.911Z,17.57
2018-10-03T15:49:07.842Z,17.50
2018-10-03T15:51:36.781Z,17.43
2018-10-03T15:54:06.219Z,17.39
2018-10-03T15:56:35.144Z,17.36
2018-10-03T15:59:04.205Z,17.28
2018-10-03T16:01:33.110Z,17.23
2018-10-03T16:04:02.014Z,17.19
2018-10-03T16:06:30.921Z,17.12
2018-10-03T16:08:59.897Z,17.04
2018-10-03T16:11:28.756Z,17.00
2018-10-03T16:13:57.863Z,17.00
2018-10-03T16:16:26.769Z,16.98
2018-10-03T16:18:55.690Z,16.89
2018-10-03T16:21:24.600Z,16.88
2018-10-03T16:23:53.421Z,16.82
2018-10-03T16:26:22.441Z,16.76
2018-10-03T16:28:51.514Z,16.71
2018-10-03T16:31:20.431Z,16.65
2018-10-03T16:33:49.385Z,16.56
2018-10-03T16:36:18.310Z,16.51
2018-10-03T16:38:47.369Z,16.48
2018-10-03T16:41:16.350Z,16.39
2018-10-03T16:43:45.306Z,16.34
2018-10-03T16:46:14.185Z,16.30
2018-10-03T16:48:43.074Z,16.30
2018-10-03T16:51:11.917Z,16.15
2018-10-03T16:53:40.785Z,16.12
2018-10-03T16:56:10.162Z,16.13
2018-10-03T16:58:38.989Z,16.10
2018-10-03T17:01:07.935Z,16.08
2018-10-03T17:03:36.826Z,16.01
2018-10-03T17:06:05.761Z,16.04
2018-10-03T17:08:35.450Z,16.04
2018-10-03T17:11:04.431Z,15.92
2018-10-03T17:13:33.344Z,15.91
2018-10-03T17:16:02.319Z,15.85
2018-10-03T17:18:31.233Z,15.87
2018-10-03T17:21:00.225Z,15.87
2018-10-03T17:23:29.792Z,15.86
2018-10-03T17:25:58.708Z,15.79
2018-10-03T17:28:27.716Z,15.74
2018-10-03T17:30:56.687Z,15.72
2018-10-03T17:33:25.493Z,15.65
2018-10-03T17:35:54.337Z,15.56
2018-10-03T17:38:23.257Z,15.50
2018-10-03T17:40:52.246Z,15.48
2018-10-03T17:43:21.319Z,15.40
2018-10-03T17:45:51.111Z,15.42
2018-10-03T17:48:20.028Z,15.37
2018-10-03T17:50:48.899Z,15.34
2018-10-03T17:53:17.805Z,15.34
2018-10-03T17:55:47.955Z,15.33
2018-10-03T17:58:16.948Z,15.23
2018-10-03T18:00:45.814Z,15.15
2018-10-03T18:03:14.647Z,15.08
2018-10-03T18:05:44.045Z,15.06
2018-10-03T18:08:12.905Z,15.03
2018-10-03T18:10:41.889Z,14.94
2018-10-03T18:13:10.858Z,14.89
2018-10-03T18:15:39.800Z,14.84
2018-10-03T18:18:08.634Z,14.78
2018-10-03T18:20:37.545Z,14.75
2018-10-03T18:23:06.413Z,14.76
2018-10-03T18:25:35.354Z,14.70
2018-10-03T18:28:04.346Z,14.68
2018-10-03T18:30:33.372Z,14.67
2018-10-03T18:33:02.302Z,14.65
2018-10-03T18:35:31.233Z,14.62
2018-10-03T18:38:00.142Z,14.67
2018-10-03T18:40:29.173Z,14.62
2018-10-03T18:42:58.053Z,14.55
2018-10-03T18:45:26.921Z,14.56
2018-10-03T18:47:55.718Z,14.53
2018-10-03T18:50:24.550Z,14.54
2018-10-03T18:52:54.071Z,14.61
2018-10-03T18:55:23.087Z,14.59
2018-10-03T18:57:52.081Z,14.52
2018-10-03T19:00:22.382Z,14.47
2018-10-03T19:02:51.246Z,14.44
2018-10-03T19:05:20.814Z,14.46
2018-10-03T19:07:49.721Z,14.47
2018-10-03T19:10:18.650Z,14.45
2018-10-03T19:12:47.544Z,14.44
2018-10-03T19:15:16.374Z,14.44
2018-10-03T19:17:45.199Z,14.36
2018-10-03T19:20:14.048Z,14.31
2018-10-03T19:22:43.172Z,14.35
2018-10-03T19:25:12.931Z,14.25
2018-10-03T19:27:41.743Z,14.23
2018-10-03T19:30:10.565Z,14.19
2018-10-03T19:32:39.606Z,14.18
2018-10-03T19:35:08.699Z,14.19
2018-10-03T19:37:37.631Z,14.11
2018-10-03T19:40:06.775Z,14.08
2018-10-03T19:42:35.762Z,14.07
2018-10-03T19:45:04.730Z,14.06
2018-10-03T19:47:33.640Z,14.04
2018-10-03T19:50:02.795Z,13.99
2018-10-03T19:52:31.681Z,14.00
2018-10-03T19:55:00.609Z,14.02
2018-10-03T19:57:29.465Z,13.95
2018-10-03T19:59:58.310Z,13.94
2018-10-03T20:02:27.524Z,13.87
2018-10-03T20:04:56.496Z,13.86
2018-10-03T20:07:25.411Z,13.83
2018-10-03T20:09:54.245Z,13.77
2018-10-03T20:12:23.125Z,13.71
2018-10-03T20:14:52.391Z,13.66
2018-10-03T20:17:21.282Z,13.61
2018-10-03T20:19:50.134Z,13.60
2018-10-03T20:22:19.002Z,13.59
2018-10-03T20:24:47.969Z,13.57
2018-10-03T20:27:16.809Z,13.51
2018-10-03T20:29:45.820Z,13.47
2018-10-03T20:32:14.663Z,13.50
2018-10-03T20:34:43.549Z,13.49
2018-10-03T20:37:12.594Z,13.44
2018-10-03T20:39:41.535Z,13.44
2018-10-03T20:42:10.418Z,13.49
2018-10-03T20:44:39.210Z,13.49
2018-10-03T20:47:08.082Z,13.48
2018-10-03T20:49:36.894Z,13.45
2018-10-03T20:52:05.926Z,13.40
2018-10-03T20:54:34.794Z,13.34
2018-10-03T20:57:03.638Z,13.27
2018-10-03T20:59:32.537Z,13.22
2018-10-03T21:02:01.664Z,13.18
2018-10-03T21:04:30.573Z,13.16
2018-10-03T21:06:59.553Z,13.12
2018-10-03T21:09:28.426Z,13.13
2018-10-03T21:11:57.431Z,13.07
2018-10-03T21:14:26.369Z,12.99
2018-10-03T21:16:55.246Z,12.97
2018-10-03T21:19:24.183Z,12.90
2018-10-03T21:21:53.085Z,12.96
2018-10-03T21:24:22.056Z,12.91
2018-10-03T21:26:51.084Z,12.86
2018-10-03T21:29:19.914Z,12.83
2018-10-03T21:31:48.822Z,12.83
2018-10-03T21:34:17.634Z,12.84
2018-10-03T21:36:46.507Z,12.84
2018-10-03T21:39:15.335Z,12.79
2018-10-03T21:41:44.204Z,12.76
2018-10-03T21:44:13.076Z,12.77
2018-10-03T21:46:42.038Z,12.78
2018-10-03T21:49:10.950Z,12.75
2018-10-03T21:51:39.875Z,12.74
2018-10-03T21:54:08.839Z,12.69
2018-10-03T21:56:37.799Z,12.68
2018-10-03T21:59:06.643Z,12.62
2018-10-03T22:01:35.526Z,12.57
2018-10-03T22:04:04.435Z,12.57
2018-10-03T22:06:33.374Z,12.56
2018-10-03T22:09:02.570Z,12.57
2018-10-03T22:11:31.539Z,12.54
2018-10-03T22:14:00.623Z,12.53
2018-10-03T22:16:29.502Z,12.56
2018-10-03T22:18:58.479Z,12.48
2018-10-03T22:21:27.472Z,12.42
2018-10-03T22:23:56.393Z,12.39
2018-10-03T22:26:25.285Z,12.31
2018-10-03T22:28:54.201Z,12.32
2018-10-03T22:31:23.154Z,12.29
2018-10-03T22:33:52.043Z,12.23
2018-10-03T22:36:21.129Z,12.19
2018-10-03T22:38:50.148Z,12.18
2018-10-03T22:41:19.038Z,12.19
2018-10-03T22:43:48.037Z,12.14
2018-10-03T22:46:17.056Z,12.11
2018-10-03T22:48:46.041Z,12.08
2018-10-03T22:51:15.058Z,12.10
2018-10-03T22:53:43.945Z,12.07
2018-10-03T22:56:13.050Z,12.09
2018-10-03T22:58:42.011Z,12.06
2018-10-03T23:01:11.009Z,12.02
2018-10-03T23:03:39.922Z,12.02
2018-10-03T23:06:09.046Z,11.98
2018-10-03T23:08:38.143Z,12.01
2018-10-03T23:11:07.204Z,11.99
2018-10-03T23:13:36.283Z,11.96
2018-10-03T23:16:05.287Z,11.94
2018-10-03T23:18:34.324Z,11.91
2018-10-03T23:21:03.267Z,11.88
2018-10-03T23:23:32.334Z,11.89
2018-10-03T23:26:01.282Z,11.83
2018-10-03T23:28:30.277Z,11.82
2018-10-03T23:30:59.279Z,11.84
2018-10-03T23:33:28.295Z,11.81
2018-10-03T23:35:57.331Z,11.76
2018-10-03T23:38:26.499Z,11.82
2018-10-03T23:40:55.683Z,11.81
2018-10-03T23:43:24.706Z,11.78
2018-10-03T23:45:53.609Z,11.79
2018-10-03T23:48:22.649Z,11.72
2018-10-03T23:50:51.607Z,11.66
2018-10-03T23:53:20.565Z,11.64
2018-10-03T23:55:49.469Z,11.66
2018-10-03T23:58:18.525Z,11.66
